Terminal Aerodrome Forecast
Issued by NWS Albuquerque, NM

Home | Current Version | Previous Version | Text Only | Print | Product List | Glossary On
Versions: 1 2 3 4 5 6 7 8 9 10 11 12 13 14
050
FTUS45 KABQ 081123
TAFABQ
TAF
KABQ 081123Z 0812/0912 08018G27KT P6SM BKN070
     FM081400 08014G22KT P6SM BKN060
     FM081600 09010KT P6SM FEW050 SCT200
     FM082100 14005KT P6SM FEW100=

USA.gov is the U.S. government's official web portal to all federal, state and local government web resources and services.